Terminal Aerodrome Forecast
Issued by NWS

Home | Current Version | Previous Version | Text Only | Print | Product List | Glossary On
Versions: 1 2 3 4 5 6 7 8 9 10 11 12 13 14 15 16 17 18 19 20 21 22 23 24 25 26 27 28 29 30
000
FTAK31 PANC 010200 AAA
TAFADU
TAF AMD
PADU 010200Z 0102/0124 13007KT 6SM -RA BR FEW005 BKN012 OVC018
      TEMPO 0102/0106 FEW012 BKN050
     FM011600 14008KT 1SM -RA BR OVC005=

USA.gov is the U.S. government's official web portal to all federal, state and local government web resources and services.